Time;durP1;ratioP1;P1;durP2;ratioP2;P2;SDS_P1;SDS_P2;PMS_P1;PMS_P2;Temp;Humidity;BMP_temperature;BMP_pressure;BME280_temperature;BME280_humidity;BME280_pressure;Samples;Min_cycle;Max_cycle;Signal;HPM_P1;HPM_P2
2021/08/13 00:00:30;;;;;;;18.52;8.77;;;;;;;17.56;41.41;100071.50;5058147;28;20050;-74
2021/08/13 00:02:56;;;;;;;22.02;8.68;;;;;;;17.64;41.84;100095.09;5041189;28;20074;-74
2021/08/13 00:05:22;;;;;;;16.17;8.55;;;;;;;17.61;41.30;100096.25;5074593;28;20075;-74
2021/08/13 00:07:48;;;;;;;16.23;9.10;;;;;;;17.63;41.68;100094.25;5074366;28;20079;-75
2021/08/13 00:10:14;;;;;;;16.15;9.25;;;;;;;17.68;41.44;100102.78;5078547;28;20080;-74
2021/08/13 00:12:40;;;;;;;17.27;8.73;;;;;;;17.67;41.53;100092.94;5095101;28;20079;-74
2021/08/13 00:15:07;;;;;;;18.60;8.35;;;;;;;17.52;41.56;100078.22;5045127;28;20067;-75
2021/08/13 00:17:34;;;;;;;18.45;8.82;;;;;;;17.50;41.69;100079.41;5061837;28;20040;-75
2021/08/13 00:20:01;;;;;;;15.95;9.02;;;;;;;17.50;41.69;100077.53;5061589;28;20036;-75
2021/08/13 00:22:27;;;;;;;22.67;9.10;;;;;;;17.45;41.85;100074.41;5094907;28;20048;-75
2021/08/13 00:24:53;;;;;;;17.30;8.90;;;;;;;17.50;42.03;100088.34;5061426;28;20553;-74
2021/08/13 00:27:19;;;;;;;15.15;8.88;;;;;;;17.52;42.09;100097.13;5078059;28;20586;-75
2021/08/13 00:29:44;;;;;;;15.82;8.57;;;;;;;17.46;42.37;100098.59;5061456;28;20139;-75
2021/08/13 00:32:12;;;;;;;13.18;8.73;;;;;;;17.40;41.99;100101.03;5061505;28;20169;-75
2021/08/13 00:34:38;;;;;;;15.10;8.07;;;;;;;17.37;42.29;100104.88;5061498;28;20044;-75
2021/08/13 00:37:05;;;;;;;16.73;8.63;;;;;;;17.35;41.89;100100.66;5077970;28;20048;-76
2021/08/13 00:39:31;;;;;;;21.52;8.68;;;;;;;17.26;42.14;100079.91;5061087;28;20052;-76
2021/08/13 00:41:57;;;;;;;18.75;7.97;;;;;;;17.19;42.42;100082.34;5078109;28;20040;-75
2021/08/13 00:44:24;;;;;;;23.83;8.07;;;;;;;17.26;42.18;100096.09;5060805;28;20060;-76
2021/08/13 00:46:50;;;;;;;15.75;8.27;;;;;;;17.16;42.02;100088.06;5061062;28;20384;-75
2021/08/13 00:49:20;;;;;;;18.92;8.63;;;;;;;17.19;42.01;100102.13;5061829;28;20047;-75
2021/08/13 00:52:01;;;;;;;15.57;7.25;;;;;;;17.14;41.92;100104.38;5063201;28;20172;-75
2021/08/13 00:54:28;;;;;;;15.32;7.55;;;;;;;17.09;42.26;100103.97;5061051;28;20161;-75
2021/08/13 00:56:56;;;;;;;21.15;9.00;;;;;;;17.08;42.10;100114.94;5044678;28;20036;-75
2021/08/13 00:59:32;;;;;;;12.27;7.25;;;;;;;17.02;42.52;100099.31;5063749;28;20056;-74
2021/08/13 01:02:24;;;;;;;17.63;7.40;;;;;;;17.15;41.88;100116.91;5091214;28;20052;-74
2021/08/13 01:05:12;;;;;;;11.70;6.13;;;;;;;17.10;41.86;100102.13;5077603;28;20130;-74
2021/08/13 01:07:38;;;;;;;14.35;6.47;;;;;;;17.09;41.60;100100.44;5060787;28;20070;-74
2021/08/13 01:10:07;;;;;;;14.95;6.65;;;;;;;17.23;41.38;100119.75;5061208;28;20109;-75
2021/08/13 01:13:08;;;;;;;12.13;6.70;;;;;;;17.26;41.21;100128.53;5045740;28;20048;-74
2021/08/13 01:15:40;;;;;;;17.88;7.00;;;;;;;17.30;41.16;100122.72;5044650;28;20173;-75
2021/08/13 01:18:15;;;;;;;16.10;6.32;;;;;;;17.32;41.01;100125.25;5027512;28;20040;-75
2021/08/13 01:21:12;;;;;;;12.68;6.25;;;;;;;17.36;40.97;100127.50;5076365;28;20044;-76
2021/08/13 01:23:47;;;;;;;16.10;6.25;;;;;;;17.38;40.94;100127.38;5057077;28;20047;-75
2021/08/13 01:26:14;;;;;;;12.07;5.72;;;;;;;17.49;40.87;100129.91;5076737;28;20477;-75
2021/08/13 01:29:02;;;;;;;14.05;5.93;;;;;;;17.55;40.65;100126.59;5060666;28;20090;-74
2021/08/13 01:31:28;;;;;;;14.05;6.38;;;;;;;17.60;40.66;100132.41;5076577;28;20043;-75
2021/08/13 01:33:58;;;;;;;18.02;6.60;;;;;;;17.67;40.49;100129.94;5044030;28;20059;-74
2021/08/13 01:36:26;;;;;;;14.57;5.68;;;;;;;17.65;40.12;100135.50;5060073;28;20055;-74
2021/08/13 01:38:52;;;;;;;16.63;6.40;;;;;;;17.70;40.17;100124.25;5076859;28;20048;-74
2021/08/13 01:41:18;;;;;;;13.68;6.68;;;;;;;17.77;40.20;100138.06;5076784;28;20101;-75
2021/08/13 01:43:44;;;;;;;12.02;5.38;;;;;;;17.85;40.20;100132.75;5076389;28;20063;-75
2021/08/13 01:46:14;;;;;;;16.80;6.53;;;;;;;17.83;39.92;100121.25;5028977;28;20067;-75
2021/08/13 01:48:51;;;;;;;15.73;6.72;;;;;;;17.95;40.01;100128.16;5063031;28;20051;-75
2021/08/13 01:51:19;;;;;;;15.93;6.00;;;;;;;18.00;39.95;100139.34;5060368;28;20093;-75
2021/08/13 01:53:47;;;;;;;22.65;7.05;;;;;;;18.02;39.80;100133.81;5060420;28;20092;-75
2021/08/13 01:56:17;;;;;;;15.30;7.00;;;;;;;18.13;39.97;100139.88;5027429;28;20066;-75
2021/08/13 01:58:43;;;;;;;16.65;6.70;;;;;;;18.24;39.52;100140.63;5076375;28;20048;-75
2021/08/13 02:01:11;;;;;;;21.15;6.97;;;;;;;18.31;39.27;100142.56;5027788;28;20459;-76
2021/08/13 02:03:39;;;;;;;19.10;7.60;;;;;;;18.36;39.10;100150.25;5027370;28;20036;-75
2021/08/13 02:06:06;;;;;;;17.85;8.30;;;;;;;18.32;38.55;100141.59;5059902;28;20048;-76
2021/08/13 02:08:35;;;;;;;19.10;7.82;;;;;;;18.37;38.88;100151.94;5043223;28;20076;-75
2021/08/13 02:11:02;;;;;;;19.35;7.82;;;;;;;18.34;38.43;100157.66;5059391;28;20521;-74
2021/08/13 02:13:29;;;;;;;17.38;8.25;;;;;;;18.37;38.56;100151.94;5059506;28;20082;-75
2021/08/13 02:16:00;;;;;;;13.90;7.55;;;;;;;18.30;38.46;100161.69;5076145;28;20044;-74
2021/08/13 02:18:26;;;;;;;16.55;7.20;;;;;;;18.22;38.48;100142.66;5059226;28;20392;-75
2021/08/13 02:20:54;;;;;;;16.00;8.15;;;;;;;18.44;38.45;100153.03;5059091;28;20214;-76
2021/08/13 02:23:21;;;;;;;21.88;7.70;;;;;;;18.55;38.43;100133.00;5043256;28;20044;-75
2021/08/13 02:25:54;;;;;;;18.77;8.70;;;;;;;18.73;38.07;100152.84;5076910;28;20040;-75
2021/08/13 02:28:22;;;;;;;16.60;7.68;;;;;;;18.80;37.94;100148.47;5043194;28;20084;-76
2021/08/13 02:30:48;;;;;;;20.33;9.25;;;;;;;18.97;37.74;100149.50;5058675;28;20089;-76
2021/08/13 02:33:15;;;;;;;35.38;9.48;;;;;;;18.98;37.74;100159.31;5058168;28;20098;-75
2021/08/13 02:35:45;;;;;;;18.33;8.73;;;;;;;18.87;37.72;100138.72;5042318;28;20052;-75
2021/08/13 02:38:24;;;;;;;20.20;9.88;;;;;;;19.04;37.69;100158.69;5092610;28;20120;-74
2021/08/13 02:40:53;;;;;;;18.88;9.10;;;;;;;19.14;37.35;100155.88;5059183;28;20036;-77
2021/08/13 02:43:27;;;;;;;18.15;9.05;;;;;;;19.25;37.53;100152.91;5075206;28;20499;-76
2021/08/13 02:45:59;;;;;;;23.27;10.10;;;;;;;19.29;37.09;100158.84;5075190;28;20044;-76
2021/08/13 02:48:25;;;;;;;20.48;9.55;;;;;;;19.41;37.01;100160.31;5042376;28;20177;-75
2021/08/13 02:50:51;;;;;;;17.17;10.43;;;;;;;19.44;36.97;100153.69;5075281;28;20047;-75
2021/08/13 02:53:21;;;;;;;23.65;10.82;;;;;;;19.53;36.58;100169.03;5042352;28;20495;-75
2021/08/13 02:55:58;;;;;;;27.60;9.70;;;;;;;19.60;36.88;100157.38;5058675;28;20564;-76
2021/08/13 02:58:27;;;;;;;19.38;9.82;;;;;;;19.59;36.50;100161.06;5042613;28;20384;-76
2021/08/13 03:00:53;;;;;;;22.95;10.18;;;;;;;19.68;36.72;100166.59;5042252;28;20040;-76
2021/08/13 03:03:19;;;;;;;23.17;8.73;;;;;;;19.73;36.47;100161.53;5058079;28;20131;-76
2021/08/13 03:05:52;;;;;;;20.15;8.73;;;;;;;19.77;36.35;100165.63;5058592;28;20120;-77
2021/08/13 03:08:19;;;;;;;29.75;9.00;;;;;;;19.87;35.82;100160.94;5059106;28;20040;-76
2021/08/13 03:10:45;;;;;;;22.33;9.57;;;;;;;19.87;35.81;100163.66;5058382;28;20063;-75
2021/08/13 03:13:19;;;;;;;22.77;9.52;;;;;;;19.90;36.07;100163.31;5043284;28;20043;-76
2021/08/13 03:15:46;;;;;;;24.77;11.90;;;;;;;19.95;35.97;100170.97;5025369;28;20050;-75
2021/08/13 03:18:12;;;;;;;24.58;11.65;;;;;;;19.95;35.83;100173.69;5074527;28;20085;-75
2021/08/13 03:20:38;;;;;;;25.20;11.57;;;;;;;19.93;35.76;100168.41;5075107;28;20143;-77
2021/08/13 03:23:08;;;;;;;23.45;11.05;;;;;;;19.93;35.86;100168.41;5058226;28;20047;-79
2021/08/13 03:25:34;;;;;;;21.80;9.65;;;;;;;19.96;36.15;100167.22;5058446;28;20059;-78
2021/08/13 03:28:07;;;;;;;36.33;10.50;;;;;;;19.96;35.95;100173.50;5058774;28;20130;-75
2021/08/13 03:30:40;;;;;;;16.13;8.48;;;;;;;19.91;35.51;100178.59;5041693;28;20044;-76
2021/08/13 03:33:09;;;;;;;23.15;9.23;;;;;;;19.85;35.65;100176.50;5058256;28;20044;-77
2021/08/13 03:35:36;;;;;;;19.83;9.20;;;;;;;19.80;35.63;100181.59;5057987;28;20044;-75
2021/08/13 03:38:03;;;;;;;24.23;9.88;;;;;;;19.88;35.86;100184.31;5057849;28;20051;-77
2021/08/13 03:40:29;;;;;;;20.60;8.13;;;;;;;19.91;35.70;100185.88;5074363;28;20044;-76
2021/08/13 03:42:55;;;;;;;30.75;9.10;;;;;;;19.82;36.07;100182.25;5057191;28;20102;-79
2021/08/13 03:45:21;;;;;;;19.25;9.38;;;;;;;19.83;36.00;100178.53;5041764;28;20089;-75
2021/08/13 03:47:48;;;;;;;24.58;9.13;;;;;;;19.97;36.07;100188.81;5090697;28;20054;-79
2021/08/13 03:50:14;;;;;;;22.10;8.77;;;;;;;20.12;35.84;100192.59;5057503;28;20139;-77
2021/08/13 03:52:40;;;;;;;24.95;9.18;;;;;;;20.11;35.36;100180.00;5058210;28;20051;-76
2021/08/13 03:55:06;;;;;;;15.93;8.35;;;;;;;20.21;34.91;100189.91;5057443;28;20071;-77
2021/08/13 03:57:34;;;;;;;22.50;8.43;;;;;;;20.20;35.02;100191.78;5042098;28;20052;-77
2021/08/13 04:00:00;;;;;;;20.60;8.50;;;;;;;20.26;34.97;100191.09;5041363;28;20097;-76
2021/08/13 04:02:26;;;;;;;17.63;8.07;;;;;;;20.23;34.69;100177.00;5057330;28;20047;-76
2021/08/13 04:04:52;;;;;;;25.77;8.50;;;;;;;20.31;34.67;100167.03;5074373;28;20044;-75
2021/08/13 04:07:18;;;;;;;19.70;7.07;;;;;;;20.49;34.59;100180.50;5040946;28;20051;-74
2021/08/13 04:09:44;;;;;;;17.02;7.50;;;;;;;20.57;34.74;100175.09;5091412;28;20502;-78
2021/08/13 04:12:15;;;;;;;17.88;6.50;;;;;;;20.61;34.07;100183.75;5059030;28;20537;-76
2021/08/13 04:14:41;;;;;;;21.33;6.75;;;;;;;20.65;33.52;100178.81;5075429;28;20044;-76
2021/08/13 04:17:07;;;;;;;14.65;6.65;;;;;;;20.66;34.00;100180.53;5050702;28;20136;-75
2021/08/13 04:19:33;;;;;;;20.45;6.13;;;;;;;20.59;33.99;100173.06;5057521;28;20062;-75
2021/08/13 04:22:01;;;;;;;14.65;6.32;;;;;;;20.50;34.11;100171.34;5057386;28;20490;-76
2021/08/13 04:24:28;;;;;;;17.10;6.57;;;;;;;20.64;33.83;100171.69;5059825;28;20040;-76
2021/08/13 04:26:54;;;;;;;15.35;6.05;;;;;;;20.72;34.05;100179.84;5094390;28;20046;-76
2021/08/13 04:29:20;;;;;;;22.08;6.65;;;;;;;20.89;33.88;100173.44;5060744;28;20047;-75
2021/08/13 04:31:46;;;;;;;22.25;6.30;;;;;;;21.01;33.72;100173.94;5065463;28;20032;-76
2021/08/13 04:34:13;;;;;;;23.48;6.47;;;;;;;21.09;33.69;100174.78;5067036;28;20422;-77
2021/08/13 04:36:39;;;;;;;21.45;6.53;;;;;;;21.04;33.99;100168.16;5057078;28;20040;-76
2021/08/13 04:39:05;;;;;;;14.82;6.55;;;;;;;21.06;34.42;100172.44;5040771;28;20047;-77
2021/08/13 04:41:36;;;;;;;21.40;6.57;;;;;;;21.20;34.17;100156.44;5074911;28;20052;-75
2021/08/13 04:44:02;;;;;;;14.35;7.13;;;;;;;21.45;33.82;100174.44;5057696;28;20052;-76
2021/08/13 04:46:28;;;;;;;20.30;6.47;;;;;;;;;;5057205;28;20043;-76
2021/08/13 04:48:55;;;;;;;17.17;6.20;;;;;;;21.41;33.96;100158.66;5040455;28;20043;-75
2021/08/13 04:51:23;;;;;;;40.63;6.70;;;;;;;21.42;34.26;100166.63;5041447;28;20070;-77
2021/08/13 04:53:49;;;;;;;18.05;5.93;;;;;;;21.57;33.73;100164.03;5040432;28;20138;-76
2021/08/13 04:56:15;;;;;;;16.77;6.47;;;;;;;21.61;34.09;100148.22;5043180;28;20086;-76
2021/08/13 04:58:42;;;;;;;19.38;5.78;;;;;;;21.79;33.70;100151.56;5060823;28;20072;-77
2021/08/13 05:01:15;;;;;;;11.38;5.35;;;;;;;21.80;33.21;100147.81;5045840;28;20048;-76
2021/08/13 05:03:41;;;;;;;20.15;5.65;;;;;;;22.04;33.62;100160.47;5063456;28;20521;-76
2021/08/13 05:06:07;;;;;;;26.23;6.53;;;;;;;22.16;33.42;100163.72;5076879;28;20431;-76
2021/08/13 05:08:33;;;;;;;21.08;5.60;;;;;;;22.26;33.19;100167.03;5077254;28;20134;-77
2021/08/13 05:10:59;;;;;;;16.58;5.35;;;;;;;22.37;32.66;100160.34;5077181;28;20051;-75
2021/08/13 05:13:26;;;;;;;13.70;4.88;;;;;;;22.45;32.19;100152.13;5060402;28;20055;-75
2021/08/13 05:15:52;;;;;;;10.15;4.15;;;;;;;22.70;32.25;100155.53;5076986;28;20048;-75
2021/08/13 05:18:19;;;;;;;12.75;4.25;;;;;;;22.81;31.64;100146.94;5060005;28;20498;-75
2021/08/13 05:20:47;;;;;;;;;;;;;;;22.88;30.47;100153.34;5077948;28;20105;-75
2021/08/13 05:23:13;;;;;;;14.88;3.00;;;;;;;22.98;30.43;100147.66;5077295;28;20263;-75
2021/08/13 05:25:40;;;;;;;9.95;2.95;;;;;;;22.98;30.08;100143.09;5060064;28;20104;-75
2021/08/13 05:28:07;;;;;;;16.05;3.22;;;;;;;23.08;29.86;100145.53;5076555;28;20458;-75
2021/08/13 05:30:36;;;;;;;13.77;3.33;;;;;;;23.28;29.69;100145.84;5077393;28;20486;-76
2021/08/13 05:33:03;;;;;;;20.73;3.17;;;;;;;23.43;29.21;100146.75;5042807;28;20185;-75
2021/08/13 05:35:29;;;;;;;8.18;3.08;;;;;;;23.61;29.15;100148.25;5076892;28;20127;-75
2021/08/13 05:38:02;;;;;;;20.52;3.45;;;;;;;23.48;29.01;100135.25;5060730;28;20139;-75
2021/08/13 05:40:28;;;;;;;8.55;3.53;;;;;;;23.73;29.16;100141.31;5076422;28;20526;-75
2021/08/13 05:42:56;;;;;;;14.68;3.40;;;;;;;23.90;28.85;100131.88;5042885;28;20060;-74
2021/08/13 05:45:22;;;;;;;10.38;3.00;;;;;;;24.07;28.76;100126.22;5093350;28;20044;-76
2021/08/13 05:47:48;;;;;;;9.73;2.72;;;;;;;24.26;28.08;100125.63;5042905;28;20036;-75
2021/08/13 05:50:16;;;;;;;12.88;2.90;;;;;;;24.34;27.43;100125.50;5076489;28;20054;-76
2021/08/13 05:52:44;;;;;;;7.90;2.97;;;;;;;24.45;27.47;100129.66;5059832;28;20088;-75
2021/08/13 05:55:11;;;;;;;12.18;3.00;;;;;;;24.48;26.63;100137.44;5026725;28;20051;-75
2021/08/13 05:57:37;;;;;;;8.30;2.30;;;;;;;24.55;26.34;100123.84;5059490;28;20139;-76
2021/08/13 06:00:04;;;;;;;7.55;2.75;;;;;;;24.65;26.05;100129.84;5059271;28;20048;-76
2021/08/13 06:02:58;;;;;;;21.35;2.60;;;;;;;24.71;25.29;100134.50;5077803;28;20047;-76
2021/08/13 06:05:26;;;;;;;9.85;2.33;;;;;;;24.74;25.05;100134.13;5045930;28;20530;-75
2021/08/13 06:07:56;;;;;;;12.85;2.50;;;;;;;24.84;25.16;100140.13;5055208;28;20047;-75
2021/08/13 06:10:22;;;;;;;6.20;2.22;;;;;;;24.79;24.62;100123.47;5079144;28;20129;-76
2021/08/13 06:12:48;;;;;;;7.63;2.10;;;;;;;24.85;24.69;100130.88;5062878;28;20142;-78
2021/08/13 06:15:15;;;;;;;13.25;2.10;;;;;;;25.08;24.63;100136.13;5046241;28;20474;-75
2021/08/13 06:17:41;;;;;;;13.20;2.17;;;;;;;25.21;24.13;100126.38;5095879;28;20044;-75
2021/08/13 06:20:09;;;;;;;14.52;2.30;;;;;;;25.31;24.29;100125.00;5062617;28;20043;-76
2021/08/13 06:22:36;;;;;;;9.73;2.42;;;;;;;25.37;23.84;100117.84;5096050;28;20040;-76
2021/08/13 06:25:02;;;;;;;11.68;2.78;;;;;;;25.44;24.11;100118.75;5112646;28;20085;-77
2021/08/13 06:27:29;;;;;;;13.77;2.40;;;;;;;25.49;23.76;100109.94;5062604;28;20043;-76
2021/08/13 06:29:54;;;;;;;10.23;2.08;;;;;;;25.61;23.72;100108.31;5095653;28;20088;-76
2021/08/13 06:32:20;;;;;;;7.13;2.15;;;;;;;25.53;23.70;100116.69;5062409;28;20044;-76
2021/08/13 06:34:47;;;;;;;14.45;2.50;;;;;;;25.59;23.87;100104.94;5078782;28;20054;-77
2021/08/13 06:37:13;;;;;;;8.90;2.28;;;;;;;25.77;23.66;100108.00;5076020;28;20043;-77
2021/08/13 06:39:39;;;;;;;6.65;2.13;;;;;;;25.94;23.24;100114.00;5075787;28;20043;-77
2021/08/13 06:42:07;;;;;;;4.40;2.17;;;;;;;26.07;23.18;100107.75;5060217;28;20051;-77
2021/08/13 06:44:35;;;;;;;10.18;2.80;;;;;;;26.13;23.22;100104.16;5093293;28;20059;-76
2021/08/13 06:47:01;;;;;;;14.20;2.65;;;;;;;26.03;22.88;100107.31;5092738;28;20044;-77
2021/08/13 06:49:27;;;;;;;10.00;2.30;;;;;;;26.09;23.33;100100.16;5109769;28;20131;-76
2021/08/13 06:51:53;;;;;;;8.75;2.25;;;;;;;26.31;23.28;100106.34;5077614;28;20526;-75
2021/08/13 06:54:21;;;;;;;4.43;1.90;;;;;;;26.25;23.23;100107.97;5078932;28;20051;-76
2021/08/13 06:56:47;;;;;;;6.60;2.60;;;;;;;26.36;23.17;100107.38;5095109;28;20281;-76
2021/08/13 06:59:13;;;;;;;4.88;2.10;;;;;;;26.58;23.07;100107.25;5095250;28;20134;-77
2021/08/13 07:01:39;;;;;;;8.32;2.20;;;;;;;26.69;23.13;100101.16;5061876;28;20087;-75
2021/08/13 07:04:05;;;;;;;10.10;2.20;;;;;;;26.68;22.69;100099.47;5078304;28;20543;-76
2021/08/13 07:06:31;;;;;;;6.60;2.13;;;;;;;26.77;22.70;100102.84;5111885;28;20084;-77
2021/08/13 07:09:00;;;;;;;3.78;2.35;;;;;;;26.86;22.68;100105.19;5113080;28;20032;-76
2021/08/13 07:11:26;;;;;;;;;;;;;;;26.96;22.87;100095.69;5079088;28;20044;-76
2021/08/13 07:13:52;;;;;;;10.65;2.63;;;;;;;27.12;22.55;100098.06;5112320;28;19926;-76
2021/08/13 07:16:18;;;;;;;12.88;2.60;;;;;;;27.02;22.48;100094.84;5095186;28;20466;-77
2021/08/13 07:18:44;;;;;;;15.90;3.30;;;;;;;27.22;22.54;100094.84;5077727;28;20116;-77
2021/08/13 07:21:15;;;;;;;20.60;3.35;;;;;;;27.56;22.25;100104.72;5111818;28;20035;-78
2021/08/13 07:23:57;;;;;;;6.95;2.85;;;;;;;27.70;22.02;100095.38;5082921;28;20050;-76
2021/08/13 07:26:23;;;;;;;7.45;2.80;;;;;;;27.67;21.87;100082.06;5094722;28;20126;-76
2021/08/13 07:28:49;;;;;;;7.90;3.20;;;;;;;27.84;22.16;100088.81;5094787;28;20462;-76
2021/08/13 07:31:14;;;;;;;14.10;3.65;;;;;;;27.88;21.77;100093.88;5094609;28;20089;-75
2021/08/13 07:33:48;;;;;;;23.90;3.40;;;;;;;27.99;21.80;100090.47;5111919;28;20062;-77
2021/08/13 07:36:14;;;;;;;6.25;3.60;;;;;;;27.91;21.91;100068.69;5094596;28;20501;-76
2021/08/13 07:38:40;;;;;;;7.07;3.22;;;;;;;28.09;21.78;100088.06;5094662;28;20039;-77
2021/08/13 07:41:07;;;;;;;6.63;3.47;;;;;;;28.30;21.55;100076.75;5078132;28;20127;-76
2021/08/13 07:43:33;;;;;;;7.05;3.70;;;;;;;28.29;21.43;100077.81;5111208;28;20063;-77
2021/08/13 07:45:59;;;;;;;8.63;3.92;;;;;;;28.42;21.61;100074.16;5111604;28;20047;-75
2021/08/13 07:48:25;;;;;;;6.40;3.53;;;;;;;28.59;21.17;100088.25;5060757;28;20494;-75
2021/08/13 07:50:51;;;;;;;7.07;4.18;;;;;;;28.62;21.33;100084.19;5111441;28;20135;-77
2021/08/13 07:53:17;;;;;;;10.05;4.45;;;;;;;28.89;21.20;100073.84;5060992;28;20066;-76
2021/08/13 07:55:43;;;;;;;10.65;5.07;;;;;;;29.00;20.86;100071.22;5061208;28;20039;-76
2021/08/13 07:58:09;;;;;;;11.13;4.82;;;;;;;29.15;21.04;100073.63;5077652;28;20055;-76
2021/08/13 08:00:35;;;;;;;19.20;4.65;;;;;;;28.97;20.75;100059.78;5077164;28;20114;-76
2021/08/13 08:03:01;;;;;;;10.52;4.50;;;;;;;29.16;20.85;100074.47;5077254;28;20122;-76
2021/08/13 08:05:27;;;;;;;9.90;4.80;;;;;;;29.18;20.66;100066.81;5094603;28;20486;-75
2021/08/13 08:07:53;;;;;;;13.75;4.63;;;;;;;29.42;20.58;100062.34;5111403;28;20248;-77
2021/08/13 08:10:19;;;;;;;11.48;4.75;;;;;;;29.50;20.42;100059.28;5077655;28;20079;-77
2021/08/13 08:12:45;;;;;;;12.77;4.93;;;;;;;29.62;20.57;100057.47;5094498;28;20526;-76
2021/08/13 08:15:11;;;;;;;10.02;5.40;;;;;;;29.69;20.64;100062.91;5060558;28;20039;-77
2021/08/13 08:17:37;;;;;;;11.30;5.45;;;;;;;29.68;20.41;100053.78;5094241;28;20138;-76
2021/08/13 08:20:04;;;;;;;14.43;5.30;;;;;;;29.66;20.39;100044.91;5094304;28;20135;-77
2021/08/13 08:22:29;;;;;;;10.88;5.30;;;;;;;29.75;19.98;100056.44;5077627;28;20048;-76
2021/08/13 08:24:56;;;;;;;18.10;5.80;;;;;;;29.79;20.42;100049.44;5060761;28;20514;-75
2021/08/13 08:27:21;;;;;;;13.20;5.40;;;;;;;29.84;19.96;100051.50;5060746;28;20075;-76
2021/08/13 08:29:47;;;;;;;15.07;5.97;;;;;;;29.66;20.48;100052.34;5077461;28;20050;-76
2021/08/13 08:32:13;;;;;;;17.17;5.72;;;;;;;29.88;20.53;100044.44;5114372;28;20385;-76
2021/08/13 08:34:39;;;;;;;13.82;6.35;;;;;;;30.26;20.05;100046.06;5064334;28;20054;-76
2021/08/13 08:37:09;;;;;;;19.02;6.95;;;;;;;30.43;19.75;100047.91;5098494;28;20057;-78
2021/08/13 08:39:36;;;;;;;12.90;6.25;;;;;;;30.43;20.14;100047.09;5114905;28;20047;-77
2021/08/13 08:42:02;;;;;;;13.40;6.28;;;;;;;30.81;19.99;100043.94;5097895;28;20069;-77
2021/08/13 08:44:28;;;;;;;16.52;6.38;;;;;;;30.98;19.86;100038.53;5098296;28;20059;-76
2021/08/13 08:46:54;;;;;;;13.40;5.85;;;;;;;31.15;19.26;100039.50;5064219;28;20042;-75
2021/08/13 08:49:20;;;;;;;14.00;6.60;;;;;;;31.12;19.23;100031.69;5097847;28;20666;-76
2021/08/13 08:51:46;;;;;;;21.45;6.55;;;;;;;31.11;19.30;100037.47;5080985;28;20083;-76
2021/08/13 08:54:12;;;;;;;14.05;6.47;;;;;;;31.09;19.27;100029.41;5097896;28;20051;-76
2021/08/13 08:56:38;;;;;;;20.70;6.88;;;;;;;31.13;19.67;100029.78;5097796;28;20043;-76
2021/08/13 08:59:04;;;;;;;10.55;8.38;;;;;;;30.93;19.52;100024.63;5098045;28;20043;-77
2021/08/13 09:01:30;;;;;;;12.95;6.88;;;;;;;31.19;19.41;100039.88;5097318;28;20055;-76
2021/08/13 09:03:56;;;;;;;17.65;7.20;;;;;;;31.27;19.12;100024.84;5080583;28;20089;-76
2021/08/13 09:06:22;;;;;;;11.88;6.70;;;;;;;31.45;19.25;100027.50;5097727;28;20040;-77
2021/08/13 09:08:48;;;;;;;17.83;6.78;;;;;;;31.65;19.09;100027.91;5115846;28;20272;-77
2021/08/13 09:11:14;;;;;;;15.65;6.53;;;;;;;31.69;18.68;100031.88;5115657;28;20633;-78
2021/08/13 09:13:57;;;;;;;14.75;7.18;;;;;;;31.87;18.69;100024.53;5098075;28;20089;-76
2021/08/13 09:16:22;;;;;;;12.88;6.35;;;;;;;31.66;18.37;100021.31;5072151;28;20035;-76
2021/08/13 09:18:57;;;;;;;10.93;5.90;;;;;;;31.71;18.52;100006.78;5097204;28;20114;-79
2021/08/13 09:21:24;;;;;;;15.95;6.85;;;;;;;32.08;18.51;100010.03;5098203;28;20051;-78
2021/08/13 09:23:49;;;;;;;12.60;5.45;;;;;;;32.38;18.08;100029.09;5096620;28;20417;-80
2021/08/13 09:26:18;;;;;;;18.83;6.00;;;;;;;32.62;17.85;100021.50;5066048;28;20050;-80
2021/08/13 09:29:03;;;;;;;18.83;5.82;;;;;;;32.50;17.75;100012.47;5099871;28;20446;-81
2021/08/13 09:31:51;;;;;;;12.45;5.93;;;;;;;32.47;17.61;100014.88;5055035;28;20479;-80
2021/08/13 09:34:27;;;;;;;10.45;5.75;;;;;;;32.48;17.66;100013.78;5045071;28;20047;-82
2021/08/13 09:36:55;;;;;;;14.77;6.55;;;;;;;32.70;18.10;100016.66;5094187;28;20101;-83
2021/08/13 09:39:40;;;;;;;10.38;5.50;;;;;;;32.92;17.33;100000.94;5092856;28;20039;-78
2021/08/13 09:42:09;;;;;;;13.35;6.13;;;;;;;32.88;17.17;100003.38;5042808;28;20040;-78
2021/08/13 09:44:37;;;;;;;15.38;6.18;;;;;;;32.60;17.29;99990.47;5076184;28;20052;-78
2021/08/13 09:47:05;;;;;;;17.48;6.22;;;;;;;32.96;17.33;100007.69;5076276;28;20044;-76
2021/08/13 09:49:39;;;;;;;18.80;5.63;;;;;;;33.15;16.87;99996.31;5076373;28;20047;-80
2021/08/13 09:52:16;;;;;;;12.23;5.75;;;;;;;33.11;16.86;99996.84;5042743;28;20063;-80
2021/08/13 09:54:44;;;;;;;14.93;6.13;;;;;;;33.32;16.96;99992.38;5076415;28;20093;-78
2021/08/13 09:57:12;;;;;;;16.88;6.30;;;;;;;33.71;16.88;99992.38;5076641;28;20052;-78
2021/08/13 09:59:57;;;;;;;12.20;5.75;;;;;;;34.02;16.30;99995.50;5059725;28;20044;-79
2021/08/13 10:02:23;;;;;;;17.25;5.80;;;;;;;34.47;16.26;99994.28;5045039;28;20139;-77
2021/08/13 10:04:49;;;;;;;19.00;5.55;;;;;;;34.61;16.13;99990.00;5092734;28;20067;-78
2021/08/13 10:07:20;;;;;;;8.27;5.45;;;;;;;34.73;15.61;99995.34;5075219;28;20083;-79
2021/08/13 10:09:50;;;;;;;8.18;5.15;;;;;;;34.45;15.43;99988.97;5060832;28;20066;-79
2021/08/13 10:12:17;;;;;;;12.65;5.55;;;;;;;34.36;15.70;99993.34;5043963;28;20044;-79
2021/08/13 10:14:43;;;;;;;14.25;5.82;;;;;;;34.65;15.64;99982.81;5075739;28;20090;-79
2021/08/13 10:17:18;;;;;;;19.88;5.72;;;;;;;34.98;15.17;99981.66;5060421;28;20048;-79
2021/08/13 10:19:54;;;;;;;19.63;7.68;;;;;;;34.96;15.07;99989.41;5092642;28;20046;-81
2021/08/13 10:22:21;;;;;;;10.45;5.60;;;;;;;35.09;15.03;99965.06;5042185;28;20521;-79
2021/08/13 10:24:50;;;;;;;14.02;6.10;;;;;;;35.08;14.91;99974.50;5058152;28;20044;-79
2021/08/13 10:27:18;;;;;;;10.70;6.00;;;;;;;35.14;15.14;99977.03;5058864;28;20093;-79
2021/08/13 10:29:49;;;;;;;21.77;6.82;;;;;;;35.56;15.29;99975.31;5093531;28;20660;-76
2021/08/13 10:32:21;;;;;;;19.02;6.25;;;;;;;35.75;15.12;99968.16;5036677;28;20491;-78
2021/08/13 10:34:47;;;;;;;13.43;6.00;;;;;;;35.43;15.05;99976.63;5071482;28;20039;-79
2021/08/13 10:37:14;;;;;;;13.93;6.32;;;;;;;35.58;14.98;99967.53;5092714;28;20087;-80
2021/08/13 10:39:44;;;;;;;19.05;6.82;;;;;;;35.43;14.83;99966.34;5060742;28;20126;-79
2021/08/13 10:42:24;;;;;;;17.52;6.32;;;;;;;35.79;14.97;99952.59;5058966;28;20044;-80
2021/08/13 10:45:02;;;;;;;15.55;6.40;;;;;;;36.30;14.71;99960.19;5061069;28;20064;-80
2021/08/13 10:47:30;;;;;;;14.25;6.93;;;;;;;36.61;14.81;99963.84;5058900;28;20044;-78
2021/08/13 10:49:57;;;;;;;19.95;6.57;;;;;;;36.99;14.27;99958.81;5043487;28;20101;-79
2021/08/13 10:52:36;;;;;;;11.75;6.22;;;;;;;37.21;14.09;99962.09;5059205;28;20044;-80
2021/08/13 10:55:08;;;;;;;27.33;8.02;;;;;;;37.76;14.17;99965.75;5056648;28;20059;-79
2021/08/13 10:57:49;;;;;;;21.93;6.60;;;;;;;38.02;13.80;99960.03;5059748;28;20064;-79
2021/08/13 11:00:21;;;;;;;12.10;6.93;;;;;;;38.43;13.56;99951.38;5076183;28;20044;-79
2021/08/13 11:03:20;;;;;;;15.45;6.65;;;;;;;38.65;12.85;99957.31;5060769;28;20047;-79
2021/08/13 11:05:58;;;;;;;18.63;6.55;;;;;;;38.68;12.39;99951.16;5077888;28;20035;-78
2021/08/13 11:08:41;;;;;;;14.10;6.60;;;;;;;38.77;12.49;99957.75;5065442;28;20048;-79
2021/08/13 11:11:11;;;;;;;16.00;6.53;;;;;;;38.35;12.94;99953.69;5075302;28;20044;-79
2021/08/13 11:13:39;;;;;;;12.50;6.28;;;;;;;38.33;12.49;99950.31;5075550;28;20047;-80
2021/08/13 11:16:25;;;;;;;11.77;6.50;;;;;;;38.37;12.89;99948.66;5042890;28;20036;-79
2021/08/13 11:19:11;;;;;;;12.48;6.00;;;;;;;39.05;12.87;99949.69;5091368;28;20507;-80
2021/08/13 11:21:38;;;;;;;15.35;7.43;;;;;;;39.30;12.33;99946.59;5059909;28;20065;-80
2021/08/13 11:24:08;;;;;;;18.80;6.70;;;;;;;39.43;12.60;99942.25;5059854;28;20044;-78
2021/08/13 11:26:56;;;;;;;15.48;7.43;;;;;;;38.95;12.14;99945.03;5060984;28;20039;-79